Flight Track Log - Related Links

Times and Time Zones

All times are in EDT time to prevent confusion due to time zone crossing. See the SWA3294 flight status page for this flight to view local times or setup timezone preferences in your user account.

Time Position Orientation Groundspeed Altitude Reporting Facility
EDT Latitude Longitude Course Direction KTS MPH feet Rate Location/Type
Sat 08:23:44 PM 28.4000 -81.3000 164° South 156 180 700  Level Orlando TRACON
Sat 08:24:56 PM 28.3500 -81.2833 164° South 208 239 3,900 3,045 Climbing Orlando TRACON
Sat 08:25:56 PM 28.3333 -81.2333 111° Southeast 218 251 7,400 2,842 Climbing Orlando TRACON
Sat 08:27:28 PM 28.4289 -81.2094 12° North 257 296 11,100 2,289 Climbing Jacksonville Center
Sat 08:28:28 PM 28.5233 -81.2339 347° North 290 334 13,200 2,500 Climbing Jacksonville Center
Sat 08:29:28 PM 28.6236 -81.2606 347° North 333 383 16,100 2,550 Climbing Jacksonville Center
Sat 08:30:28 PM 28.7325 -81.2919 346° North 363 418 18,300 2,150 Climbing Jacksonville Center
Sat 08:31:28 PM 28.8458 -81.3233 346° North 400 460 20,400 2,200 Climbing Jacksonville Center
Sat 08:32:28 PM 28.9608 -81.3547 347° North 417 480 22,700 2,200 Climbing Jacksonville Center
Sat 08:33:28 PM 29.0844 -81.3861 347° North 427 491 24,800 2,050 Climbing Jacksonville Center
Sat 08:34:28 PM 29.2097 -81.4033 353° North 438 504 26,800 1,900 Climbing Jacksonville Center
Sat 08:35:28 PM 29.3353 -81.4156 355° North 451 519 28,600 1,600 Climbing Jacksonville Center
Sat 08:36:28 PM 29.4669 -81.4281 355° North 456 525 30,000 1,700 Climbing Jacksonville Center
Sat 08:37:28 PM 29.5942 -81.4308 359° North 461 531 32,000 2,000 Climbing Jacksonville Center
Sat 08:38:28 PM 29.7217 -81.4336 359° North 461 531 34,000 2,350 Climbing Jacksonville Center
Sat 08:39:28 PM 29.8428 -81.4294 North 449 517 36,700 2,319 Climbing Jacksonville Center
Sat 08:40:27 PM 29.9553 -81.4303 360° North 423 487 38,600 1,150 Climbing Jacksonville Center
Sat 08:41:28 PM 30.0658 -81.4167 North 402 463 39,000 200 Climbing Jacksonville Center
Sat 08:42:27 PM 30.1806 -81.4075 North 402 463 39,000  Level Jacksonville Center
Sat 08:43:27 PM 30.2850 -81.3964 North 409 471 39,000  Level Jacksonville Center
Sat 08:44:28 PM 30.3975 -81.3875 North 409 471 39,000  Level Jacksonville Center
Sat 08:45:28 PM 30.5142 -81.3733 North 409 471 39,000  Level Jacksonville Center
Sat 08:46:28 PM 30.6311 -81.3644 North 409 471 39,000  Level Jacksonville Center
Sat 08:47:28 PM 30.7458 -81.3553 North 409 471 39,000  Level Jacksonville Center
Sat 08:48:28 PM 30.8606 -81.3436 North 409 471 39,000  Level Jacksonville Center
Sat 08:49:28 PM 30.9772 -81.3344 North 414 476 39,000  Level Jacksonville Center
Sat 08:50:28 PM 31.0942 -81.3228 North 414 476 39,000  Level Jacksonville Center
Sat 08:51:28 PM 31.2067 -81.3114 North 414 476 39,000  Level Jacksonville Center
Sat 08:52:27 PM 31.3236 -81.3019 North 414 476 39,000  Level Jacksonville Center
Sat 08:53:28 PM 31.4464 -81.2878 North 407 468 39,000  Level Jacksonville Center
Sat 08:54:27 PM 31.5528 -81.2786 North 407 468 39,000  Level Jacksonville Center
Sat 08:55:28 PM 31.6800 -81.2642 North 413 475 39,000  Level Jacksonville Center
Sat 08:56:27 PM 31.7844 -81.2550 North 413 475 39,000  Level Jacksonville Center
Sat 08:57:28 PM 31.9136 -81.2456 North 418 481 39,000  Level Jacksonville Center
Sat 08:58:27 PM 32.0325 -81.2333 North 418 481 39,000  Level Jacksonville Center
Sat 08:59:28 PM 32.1472 -81.2242 North 424 488 39,000  Level Jacksonville Center
Sat 09:00:28 PM 32.2661 -81.2119 North 424 488 39,000  Level Jacksonville Center
Sat 09:01:27 PM 32.3828 -81.2000 North 420 483 39,000  Level Jacksonville Center
Sat 09:02:27 PM 32.5017 -81.1931 North 428 493 39,000  Level Jacksonville Center
Sat 09:03:28 PM 32.6206 -81.1808 North 421 484 39,000  Level Jacksonville Center
Sat 09:04:28 PM 32.7372 -81.1664 North 421 484 39,000  Level Jacksonville Center
Sat 09:05:27 PM 32.8581 -81.1542 North 426 490 39,000  Level Jacksonville Center
Sat 09:06:27 PM 32.9769 -81.1444 North 426 490 39,000  Level Jacksonville Center
Sat 09:07:27 PM 33.0978 -81.1319 North 426 490 39,000  Level Jacksonville Center
Sat 09:08:28 PM 33.2167 -81.1197 North 426 490 39,000  Level Jacksonville Center
Sat 09:09:27 PM 33.3375 -81.1100 North 426 490 39,000  Level Jacksonville Center
Sat 09:10:28 PM 33.4606 -81.0975 North 426 490 39,000  Level Jacksonville Center
Sat 09:11:27 PM 33.5814 -81.0850 North 426 490 39,000  Level Jacksonville Center
Sat 09:12:27 PM 33.7022 -81.0728 North 426 490 39,000  Level Jacksonville Center
Sat 09:13:27 PM 33.8231 -81.0550 North 431 496 39,000  Level Jacksonville Center
Sat 09:14:27 PM 33.9503 -81.0450 North 442 509 39,000  Level Jacksonville Center
Sat 09:15:27 PM 34.0689 -81.0325 North 442 509 39,000  Level Jacksonville Center
Sat 09:17:54 PM 34.3514 -81.0019 North 441 507 39,000  Level Atlanta Center
Sat 09:18:54 PM 34.4850 -80.9944 North 441 507 39,000  Level Atlanta Center
Sat 09:19:54 PM 34.6078 -80.9825 North 441 507 39,000  Level Atlanta Center
Sat 09:20:54 PM 34.7306 -80.9656 North 436 502 39,000  Level Atlanta Center
Sat 09:21:54 PM 34.8533 -80.9558 North 441 507 39,000  Level Atlanta Center
Sat 09:22:54 PM 34.9758 -80.9361 North 441 507 39,000  Level Atlanta Center
Sat 09:23:54 PM 35.0967 -80.9264 North 441 507 39,000  Level Atlanta Center
Sat 09:24:54 PM 35.2175 -80.9144 North 441 507 39,000  Level Atlanta Center
Sat 09:25:54 PM 35.3422 -80.8994 North 441 507 39,000  Level Atlanta Center
Sat 09:26:54 PM 35.4647 -80.8769 North 441 507 39,000  Level Atlanta Center
Sat 09:27:54 PM 35.5892 -80.8492 10° North 447 514 39,000  Level Atlanta Center
Sat 09:28:54 PM 35.7117 -80.8264 North 447 514 39,000  Level Atlanta Center
Sat 09:29:54 PM 35.8361 -80.7958 11° North 447 514 39,000  Level Atlanta Center
Sat 09:30:54 PM 35.9533 -80.7347 23° Northeast 447 514 39,000  Level Atlanta Center
Sat 09:31:54 PM 36.0683 -80.6658 26° Northeast 459 528 39,000  Level Atlanta Center
Sat 09:34:04 PM 36.3089 -80.5256 25° Northeast 457 526 39,000  Level Washington Center
Sat 09:35:06 PM 36.4239 -80.4658 23° Northeast 449 517 39,000  Level Washington Center
Sat 09:36:04 PM 36.5342 -80.4233 17° North 435 501 39,000  Level Washington Center
Sat 09:37:06 PM 36.6636 -80.3694 18° North 435 501 39,000  Level Washington Center
Sat 09:38:05 PM 36.7814 -80.3506 North 429 494 39,000  Level Washington Center
Sat 09:39:04 PM 36.9011 -80.3294 North 429 494 39,000  Level Washington Center
Sat 09:40:04 PM 37.0208 -80.3108 North 429 494 39,000  Level Washington Center
Sat 09:41:05 PM 37.1300 -80.2914 North 429 494 39,000  Level Washington Center
Sat 09:42:04 PM 37.2497 -80.2703 North 429 494 39,000  Level Washington Center
Sat 09:43:04 PM 37.3694 -80.2514 North 429 494 39,000  Level Washington Center
Sat 09:44:05 PM 37.4933 -80.2303 North 434 499 39,000  Level Washington Center
Sat 09:45:05 PM 37.6194 -80.2064 North 440 506 39,000  Level Washington Center
Sat 09:46:06 PM 37.7536 -80.1858 North 445 512 39,000  Level Washington Center
Sat 09:47:04 PM 37.8778 -80.1617 North 445 512 39,000  Level Washington Center
Sat 09:48:04 PM 38.0056 -80.1406 North 450 518 39,000  Level Washington Center
Sat 09:49:05 PM 38.1275 -80.1164 North 450 518 39,000  Level Washington Center
Sat 09:50:04 PM 38.2408 -80.0967 North 450 518 39,000  Level Washington Center
Sat 09:51:04 PM 38.3647 -80.0750 North 450 518 39,000  Level Washington Center
Sat 09:52:06 PM 38.4886 -80.0533 North 450 518 39,000  Level Washington Center
Sat 09:53:04 PM 38.6125 -80.0289 North 450 518 39,000  Level Washington Center
Sat 09:54:04 PM 38.7489 -80.0078 North 450 518 39,000  Level Washington Center
Sat 09:55:04 PM 38.8708 -79.9833 North 450 518 39,000  Level Washington Center
Sat 09:56:36 PM 39.0606 -79.9389 10° North 464 534 39,000  Level Cleveland Center
Sat 09:57:36 PM 39.1836 -79.9164 North 464 534 39,000  Level Cleveland Center
Sat 09:58:36 PM 39.3064 -79.8936 North 454 522 39,000  Level Cleveland Center
Sat 09:59:36 PM 39.4333 -79.8736 North 454 522 39,000  Level Cleveland Center
Sat 10:00:36 PM 39.5561 -79.8481 North 449 517 39,000  Level Cleveland Center
Sat 10:01:36 PM 39.6811 -79.8250 North 449 517 39,000  Level Cleveland Center
Sat 10:02:36 PM 39.8039 -79.8022 North 449 517 39,000  Level Cleveland Center
Sat 10:03:36 PM 39.9183 -79.7792 North 455 524 39,000  Level Cleveland Center
Sat 10:04:36 PM 40.0453 -79.7558 North 455 524 39,000  Level Cleveland Center
Sat 10:05:36 PM 40.1683 -79.7328 North 455 524 39,000 -500 Level Cleveland Center
Sat 10:06:36 PM 40.2911 -79.7067 North 444 511 38,000 -950 Descending Cleveland Center
Sat 10:07:36 PM 40.4158 -79.6831 North 444 511 37,100 -900 Descending Cleveland Center
Sat 10:08:36 PM 40.5408 -79.6622 North 444 511 36,200 -950 Descending Cleveland Center
Sat 10:09:36 PM 40.6700 -79.6358 North 450 518 35,200 -950 Descending Cleveland Center
Sat 10:10:36 PM 40.7989 -79.6122 North 460 529 34,300 -1,000 Descending Cleveland Center
Sat 10:11:36 PM 40.9258 -79.5883 North 460 529 33,200 -1,050 Descending Cleveland Center
Sat 10:12:36 PM 41.0486 -79.5617 North 460 529 32,200 -1,000 Descending Cleveland Center
Sat 10:13:36 PM 41.1736 -79.5378 North 460 529 31,200 -1,000 Descending Cleveland Center
Sat 10:14:36 PM 41.2942 -79.5136 North 447 514 30,200 -1,000 Descending Cleveland Center
Sat 10:15:36 PM 41.4128 -79.4922 North 442 509 29,200 -1,000 Descending Cleveland Center
Sat 10:16:36 PM 41.5314 -79.4708 North 436 502 28,200 -1,000 Descending Cleveland Center
Sat 10:17:36 PM 41.6458 -79.4467 North 423 487 27,200 -1,450 Descending Cleveland Center
Sat 10:18:36 PM 41.7644 -79.4222 North 423 487 25,300 -2,100 Descending Cleveland Center
Sat 10:19:36 PM 41.8747 -79.4008 North 418 481 23,000 -2,450 Descending Cleveland Center
Sat 10:20:36 PM 41.9911 -79.3764 North 413 475 20,400 -2,500 Descending Cleveland Center
Sat 10:21:36 PM 42.1014 -79.3547 North 407 468 18,000 -2,400 Descending Cleveland Center
Sat 10:22:36 PM 42.2139 -79.3328 North 407 468 15,600 -2,450 Descending Cleveland Center
Sat 10:23:36 PM 42.3239 -79.3083 North 407 468 13,100 -2,200 Descending Cleveland Center
Sat 10:24:36 PM 42.4300 -79.2836 10° North 401 461 11,200 -1,450 Descending Cleveland Center
Sat 10:25:36 PM 42.5339 -79.2447 15° North 378 435 10,200 -1,100 Descending Cleveland Center
Sat 10:26:36 PM 42.6186 -79.2006 21° North 336 387 9,000 -1,200 Descending Cleveland Center
Sat 10:27:36 PM 42.6908 -79.1425 31° Northeast 305 351 7,800 -1,300 Descending Cleveland Center
Sat 10:28:36 PM 42.7528 -79.0903 32° Northeast 293 337 6,400 -1,350 Descending Cleveland Center
Sat 10:29:36 PM 42.8231 -79.0347 30° Northeast 293 337 5,100 -1,150 Descending Cleveland Center
Sat 10:30:36 PM 42.8992 -78.9764 29° Northeast 283 326 4,100 -650 Descending Cleveland Center
Sat 10:31:36 PM 42.9547 -78.9294 32° Northeast 260 299 3,800 -550 Descending Cleveland Center
Sat 10:32:36 PM 42.9936 -78.8658 50° Northeast 238 274 3,000 -624 Descending Cleveland Center
Sat 10:33:41 PM 43.0333 -78.7833 57° Northeast 227 261 2,500 -240 Descending Buffalo TRACON
Sat 10:34:41 PM 43.0667 -78.7167 56° Northeast 219 252 2,500 -143 Level Buffalo TRACON
Sat 10:35:47 PM 43.0333 -78.6500 124° Southeast 166 191 2,200 -331 Descending Buffalo TRACON
Sat 10:36:48 PM 43.0000 -78.6500 180° South 127 146 1,800 -446 Descending Buffalo TRACON
Sat 10:37:48 PM 42.9667 -78.6833 216° Southwest 133 153 1,300 -500 Descending Buffalo TRACON

Login

Don't have an account? Register now (free) for customized features, flight alerts, and more!